Time;durP1;ratioP1;P1;durP2;ratioP2;P2;SDS_P1;SDS_P2;PMS_P1;PMS_P2;Temp;Humidity;BMP_temperature;BMP_pressure;BME280_temperature;BME280_humidity;BME280_pressure;Samples;Min_cycle;Max_cycle;Signal;HPM_P1;HPM_P2
2022/11/11 00:00:32;;;;;;;12.48;9.82;;;;;;;;;;5015200;28;20033;-66
2022/11/11 00:02:58;;;;;;;11.75;9.75;;;;;;;;;;5015105;28;20121;-66
2022/11/11 00:05:24;;;;;;;12.80;10.00;;;;;;;;;;5015061;28;20080;-66
2022/11/11 00:07:58;;;;;;;12.60;10.43;;;;;;;;;;5014967;28;20477;-67
2022/11/11 00:10:29;;;;;;;12.23;9.93;;;;;;;;;;5015010;28;20030;-68
2022/11/11 00:13:02;;;;;;;12.02;10.07;;;;;;;;;;5015012;28;20492;-66
2022/11/11 00:15:29;;;;;;;12.63;10.10;;;;;;;;;;5014820;28;20457;-66
2022/11/11 00:26:13;;;;;;;12.05;10.07;;;;;;;;;;5014659;28;20556;-65
2022/11/11 00:28:39;;;;;;;13.60;9.48;;;;;;;;;;5014580;28;20040;-65
2022/11/11 00:31:11;;;;;;;11.93;9.95;;;;;;;;;;5014581;28;20066;-65
2022/11/11 00:33:36;;;;;;;12.43;10.02;;;;;;;;;;5014739;28;20050;-65
2022/11/11 00:36:03;;;;;;;11.77;9.30;;;;;;;;;;5014453;28;20500;-65
2022/11/11 00:38:44;;;;;;;10.40;9.13;;;;;;;;;;5014688;28;20034;-65
2022/11/11 00:41:15;;;;;;;11.93;9.98;;;;;;;;;;5014464;28;20030;-65
2022/11/11 00:43:40;;;;;;;11.63;9.18;;;;;;;;;;5014637;28;20022;-65
2022/11/11 00:51:34;;;;;;;11.65;9.25;;;;;;;;;;5014452;28;20048;-65
2022/11/11 00:54:00;;;;;;;13.27;9.60;;;;;;;;;;5014120;28;20025;-65
2022/11/11 00:56:25;;;;;;;14.52;9.95;;;;;;;;;;5013976;28;20029;-65
2022/11/11 00:58:51;;;;;;;11.65;9.27;;;;;;;;;;5014377;28;20096;-65
2022/11/11 01:01:17;;;;;;;12.57;9.77;;;;;;;;;;5014213;28;20053;-65
2022/11/11 01:03:43;;;;;;;13.00;9.75;;;;;;;;;;5014237;28;20045;-65
2022/11/11 01:06:11;;;;;;;12.40;9.93;;;;;;;;;;5014225;28;20462;-65
2022/11/11 01:08:37;;;;;;;12.32;9.88;;;;;;;;;;5014150;28;20022;-66
2022/11/11 01:11:02;;;;;;;10.82;9.45;;;;;;;;;;5014225;28;20444;-66
2022/11/11 01:13:31;;;;;;;12.45;9.05;;;;;;;;;;5013704;28;20635;-66
2022/11/11 01:16:03;;;;;;;10.70;9.38;;;;;;;;;;5013616;28;20532;-65
2022/11/11 01:18:28;;;;;;;13.15;9.63;;;;;;;;;;5013979;28;20022;-65
2022/11/11 01:21:04;;;;;;;11.43;9.45;;;;;;;;;;5013569;28;20075;-68
2022/11/11 01:23:32;;;;;;;12.55;10.07;;;;;;;;;;5013605;28;20034;-68
2022/11/11 01:26:03;;;;;;;12.70;9.50;;;;;;;;;;5013332;28;20057;-68
2022/11/11 01:28:28;;;;;;;11.68;8.63;;;;;;;;;;5013476;28;20053;-66
2022/11/11 01:31:00;;;;;;;12.05;9.40;;;;;;;;;;5013745;28;20022;-69
2022/11/11 01:33:26;;;;;;;10.80;8.95;;;;;;;;;;5013456;28;20037;-69
2022/11/11 01:35:51;;;;;;;11.77;9.23;;;;;;;;;;5012150;28;20026;-68
2022/11/11 01:38:17;;;;;;;11.43;9.43;;;;;;;;;;5012073;28;20029;-69
2022/11/11 01:40:47;;;;;;;11.90;10.02;;;;;;;;;;5013325;28;20050;-66
2022/11/11 01:43:20;;;;;;;;;;;;;;;;;;5014010;28;20108;-68
2022/11/11 01:45:49;;;;;;;12.00;8.98;;;;;;;;;;5013217;28;19960;-67
2022/11/11 01:52:13;;;;;;;12.02;9.18;;;;;;;;;;4997948;28;20049;-65
2022/11/11 01:54:41;;;;;;;12.73;9.30;;;;;;;;;;4993543;28;20038;-66
2022/11/11 01:57:36;;;;;;;11.98;9.63;;;;;;;;;;5013031;28;20061;-67
2022/11/11 02:00:13;;;;;;;11.25;9.38;;;;;;;;;;5010815;28;20034;-66
2022/11/11 02:02:49;;;;;;;11.48;9.35;;;;;;;;;;5012425;28;20026;-66
2022/11/11 02:08:33;;;;;;;10.82;8.95;;;;;;;;;;5013211;28;20113;-66
2022/11/11 02:11:12;;;;;;;12.15;9.35;;;;;;;;;;5012920;28;20112;-66
2022/11/11 02:16:32;;;;;;;10.60;8.68;;;;;;;;;;5011400;28;20104;-67
2022/11/11 02:18:58;;;;;;;11.23;8.88;;;;;;;;;;5013085;28;20366;-68
2022/11/11 02:21:36;;;;;;;11.40;9.25;;;;;;;;;;5012700;28;20033;-69
2022/11/11 02:24:09;;;;;;;12.40;9.02;;;;;;;;;;5013030;28;20045;-67
2022/11/11 02:26:36;;;;;;;10.18;8.93;;;;;;;;;;5012364;28;20054;-68
2022/11/11 02:29:11;;;;;;;10.63;8.70;;;;;;;;;;5012683;28;20128;-67
2022/11/11 02:31:36;;;;;;;11.63;9.32;;;;;;;;;;5012673;28;20014;-66
2022/11/11 02:34:02;;;;;;;9.88;8.50;;;;;;;;;;5012984;28;20024;-68
2022/11/11 02:36:27;;;;;;;10.57;9.00;;;;;;;;;;5012483;28;20113;-66
2022/11/11 02:38:53;;;;;;;9.80;8.32;;;;;;;;;;5012541;28;20029;-66
2022/11/11 02:44:03;;;;;;;10.90;8.90;;;;;;;;;;5013114;28;20032;-68
2022/11/11 02:46:28;;;;;;;10.48;8.43;;;;;;;;;;5012550;28;20409;-67
2022/11/11 02:48:54;;;;;;;10.65;9.15;;;;;;;;;;5012754;28;20018;-68
2022/11/11 02:51:19;;;;;;;9.50;8.45;;;;;;;;;;5012415;28;20022;-68
2022/11/11 02:53:45;;;;;;;11.95;8.95;;;;;;;;;;5012486;28;20073;-68
2022/11/11 02:56:10;;;;;;;10.55;8.57;;;;;;;;;;5012310;28;20069;-69
2022/11/11 02:58:36;;;;;;;9.32;8.32;;;;;;;;;;5012354;28;20026;-69
2022/11/11 03:01:01;;;;;;;10.68;8.18;;;;;;;;;;5012678;28;20034;-66
2022/11/11 03:03:27;;;;;;;10.25;8.73;;;;;;;;;;5012258;28;20485;-66
2022/11/11 03:05:52;;;;;;;10.52;8.57;;;;;;;;;;5012371;28;20026;-66
2022/11/11 03:08:18;;;;;;;9.70;8.27;;;;;;;;;;5012246;28;20087;-67
2022/11/11 03:10:43;;;;;;;10.32;8.50;;;;;;;;;;5012267;28;20079;-68
2022/11/11 03:13:09;;;;;;;10.68;9.27;;;;;;;;;;5012256;28;20030;-67
2022/11/11 03:15:34;;;;;;;10.10;8.30;;;;;;;;;;5015814;28;20041;-68
2022/11/11 03:18:00;;;;;;;11.52;9.07;;;;;;;;;;5016191;28;20474;-67
2022/11/11 03:23:12;;;;;;;10.70;8.90;;;;;;;;;;5015954;28;20068;-65
2022/11/11 03:25:44;;;;;;;9.60;8.15;;;;;;;;;;5015662;28;20458;-66
2022/11/11 03:28:15;;;;;;;10.35;8.27;;;;;;;;;;5015822;28;20022;-65
2022/11/11 03:30:43;;;;;;;10.25;8.40;;;;;;;;;;5016036;28;20057;-65
2022/11/11 03:33:09;;;;;;;10.52;8.52;;;;;;;;;;5015772;28;20423;-65
2022/11/11 03:35:35;;;;;;;9.90;8.52;;;;;;;;;;5015547;28;20137;-65
2022/11/11 03:38:14;;;;;;;10.32;8.65;;;;;;;;;;5015897;28;20041;-65
2022/11/11 03:40:41;;;;;;;8.90;7.88;;;;;;;;;;5015658;28;20385;-66
2022/11/11 03:43:07;;;;;;;14.10;8.95;;;;;;;;;;5014289;28;20172;-66
2022/11/11 03:45:32;;;;;;;11.02;8.30;;;;;;;;;;5015711;28;20097;-66
2022/11/11 03:47:58;;;;;;;11.48;8.32;;;;;;;;;;5015473;28;20490;-65
2022/11/11 03:50:23;;;;;;;10.18;8.10;;;;;;;;;;5015692;28;20473;-65
2022/11/11 03:52:49;;;;;;;10.60;8.65;;;;;;;;;;5015295;28;20116;-66
2022/11/11 03:55:14;;;;;;;9.82;8.48;;;;;;;;;;5015523;28;20034;-66
2022/11/11 03:57:42;;;;;;;10.80;8.80;;;;;;;;;;5015529;28;20084;-66
2022/11/11 04:00:10;;;;;;;9.20;7.70;;;;;;;;;;5015473;28;20100;-66
2022/11/11 04:10:48;;;;;;;9.52;8.20;;;;;;;;;;5015634;28;20041;-67
2022/11/11 04:16:07;;;;;;;9.63;7.93;;;;;;;;;;5015020;28;20041;-68
2022/11/11 04:21:43;;;;;;;9.25;8.02;;;;;;;;;;4992877;28;20042;-66
2022/11/11 04:26:56;;;;;;;10.23;8.07;;;;;;;;;;5014585;28;20084;-66
2022/11/11 04:29:28;;;;;;;10.10;8.15;;;;;;;;;;5014725;28;20029;-65
2022/11/11 04:35:00;;;;;;;9.45;8.13;;;;;;;;;;5014764;28;20060;-66
2022/11/11 04:37:29;;;;;;;10.10;8.63;;;;;;;;;;5014468;28;20080;-67
2022/11/11 04:42:39;;;;;;;10.23;8.10;;;;;;;;;;5014734;28;20045;-65
2022/11/11 04:47:53;;;;;;;10.20;8.10;;;;;;;;;;5014364;28;20028;-66
2022/11/11 04:50:20;;;;;;;9.30;8.20;;;;;;;;;;5014149;28;20038;-66
2022/11/11 04:52:45;;;;;;;9.88;7.93;;;;;;;;;;5014195;28;20034;-65
2022/11/11 04:57:55;;;;;;;9.18;7.68;;;;;;;;;;5014448;28;20521;-65
2022/11/11 05:00:21;;;;;;;8.75;6.93;;;;;;;;;;5014070;28;20022;-65
2022/11/11 05:08:54;;;;;;;9.55;7.72;;;;;;;;;;5014037;28;20524;-66
2022/11/11 05:11:00;;;;;;;8.90;7.18;;;;;;;;;;5013846;28;20029;-65
2022/11/11 05:21:46;;;;;;;8.73;7.38;;;;;;;;;;5014031;28;20040;-66
2022/11/11 05:26:55;;;;;;;8.27;7.35;;;;;;;;;;5013574;28;20514;-65
2022/11/11 05:29:21;;;;;;;10.43;8.32;;;;;;;;;;5013548;28;20087;-65
2022/11/11 05:31:46;;;;;;;8.35;7.40;;;;;;;;;;5013696;28;20052;-65
2022/11/11 05:34:12;;;;;;;9.00;7.57;;;;;;;;;;5013431;28;20466;-66
2022/11/11 05:36:37;;;;;;;8.40;7.50;;;;;;;;;;5012383;28;20466;-66
2022/11/11 05:39:03;;;;;;;10.02;7.88;;;;;;;;;;5013400;28;20037;-66
2022/11/11 05:41:28;;;;;;;9.73;7.57;;;;;;;;;;5013301;28;20025;-66
2022/11/11 05:43:54;;;;;;;7.97;7.03;;;;;;;;;;5011535;28;20099;-66
2022/11/11 05:46:19;;;;;;;8.82;7.40;;;;;;;;;;5013115;28;20037;-67
2022/11/11 05:51:29;;;;;;;8.93;7.43;;;;;;;;;;5013445;28;20033;-65
2022/11/11 05:53:55;;;;;;;9.27;7.00;;;;;;;;;;5013327;28;20030;-65
2022/11/11 05:56:21;;;;;;;8.23;7.00;;;;;;;;;;5012944;28;20125;-66
2022/11/11 05:58:47;;;;;;;7.85;7.05;;;;;;;;;;5012971;28;20157;-66
2022/11/11 06:01:12;;;;;;;9.35;7.15;;;;;;;;;;5012892;28;20068;-66
2022/11/11 06:03:38;;;;;;;8.38;7.05;;;;;;;;;;5013117;28;20018;-64
2022/11/11 06:06:05;;;;;;;8.05;7.00;;;;;;;;;;5012924;28;20053;-65
2022/11/11 06:08:30;;;;;;;8.88;6.80;;;;;;;;;;5012771;28;20091;-66
2022/11/11 06:10:57;;;;;;;7.72;6.75;;;;;;;;;;5012729;28;20045;-67
2022/11/11 06:13:23;;;;;;;9.68;6.97;;;;;;;;;;5012621;28;20126;-67
2022/11/11 06:15:48;;;;;;;8.48;6.90;;;;;;;;;;5020553;28;20061;-70
2022/11/11 06:18:14;;;;;;;8.25;7.15;;;;;;;;;;5032650;28;20048;-69
2022/11/11 06:20:39;;;;;;;8.75;7.18;;;;;;;;;;5032420;28;20053;-68
2022/11/11 06:23:05;;;;;;;7.80;7.00;;;;;;;;;;5032643;28;20052;-68
2022/11/11 06:28:17;;;;;;;7.90;6.50;;;;;;;;;;5032624;28;20389;-70
2022/11/11 06:30:43;;;;;;;7.75;6.82;;;;;;;;;;5032054;28;20026;-70
2022/11/11 06:33:09;;;;;;;8.30;7.18;;;;;;;;;;5032157;28;20076;-67
2022/11/11 06:35:36;;;;;;;7.65;6.60;;;;;;;;;;5032112;28;20494;-67
2022/11/11 06:38:03;;;;;;;8.02;6.97;;;;;;;;;;5032216;28;20018;-68
2022/11/11 06:40:29;;;;;;;7.80;6.65;;;;;;;;;;5032842;28;20052;-68
2022/11/11 06:42:59;;;;;;;8.27;7.40;;;;;;;;;;5032231;28;20095;-67
2022/11/11 06:45:26;;;;;;;7.37;6.63;;;;;;;;;;5032123;28;20405;-67
2022/11/11 06:47:52;;;;;;;9.07;7.10;;;;;;;;;;5032863;28;20025;-68
2022/11/11 06:50:18;;;;;;;8.30;6.68;;;;;;;;;;5036080;28;20116;-67
2022/11/11 06:52:44;;;;;;;8.40;7.25;;;;;;;;;;5036069;28;20047;-68
2022/11/11 06:55:10;;;;;;;9.25;6.88;;;;;;;;;;5036310;28;20075;-67
2022/11/11 06:57:36;;;;;;;8.10;6.93;;;;;;;;;;5034725;28;20428;-67
2022/11/11 07:00:06;;;;;;;7.50;6.70;;;;;;;;;;5036275;28;20025;-67
2022/11/11 07:02:32;;;;;;;;;;;;;;;;;;5036478;28;20082;-68
2022/11/11 07:04:58;;;;;;;7.70;6.57;;;;;;;;;;5035877;28;20385;-68
2022/11/11 07:07:23;;;;;;;8.95;6.57;;;;;;;;;;5035800;28;20039;-68
2022/11/11 07:09:49;;;;;;;7.70;6.90;;;;;;;;;;5036103;28;20029;-68
2022/11/11 07:12:14;;;;;;;8.88;6.70;;;;;;;;;;5036061;28;20101;-68
2022/11/11 07:14:40;;;;;;;7.80;6.50;;;;;;;;;;5034544;28;20478;-68
2022/11/11 07:17:06;;;;;;;7.57;6.72;;;;;;;;;;5035660;28;20469;-68
2022/11/11 07:19:31;;;;;;;7.95;6.32;;;;;;;;;;5035701;28;20047;-68
2022/11/11 07:21:57;;;;;;;7.40;6.20;;;;;;;;;;5035708;28;20025;-68
2022/11/11 07:24:22;;;;;;;6.93;6.22;;;;;;;;;;5035872;28;20034;-68
2022/11/11 07:26:48;;;;;;;7.88;6.32;;;;;;;;;;5035262;28;20481;-68
2022/11/11 07:29:14;;;;;;;8.55;6.43;;;;;;;;;;5035699;28;20041;-68
2022/11/11 07:31:40;;;;;;;7.28;6.47;;;;;;;;;;5034158;28;20362;-69
2022/11/11 07:34:06;;;;;;;7.90;6.80;;;;;;;;;;5030622;28;20472;-69
2022/11/11 07:36:32;;;;;;;7.90;7.10;;;;;;;;;;5030920;28;20036;-69
2022/11/11 07:38:57;;;;;;;7.05;6.22;;;;;;;;;;5030746;28;20433;-68
2022/11/11 07:41:23;;;;;;;7.50;6.70;;;;;;;;;;5031089;28;20086;-68
2022/11/11 07:43:48;;;;;;;7.65;6.10;;;;;;;;;;5030269;28;20543;-68
2022/11/11 07:46:14;;;;;;;7.47;6.72;;;;;;;;;;5030687;28;20025;-68
2022/11/11 07:48:39;;;;;;;7.63;6.82;;;;;;;;;;5030637;28;20404;-68
2022/11/11 07:51:05;;;;;;;7.50;6.50;;;;;;;;;;5022723;28;20033;-66
2022/11/11 07:53:31;;;;;;;8.38;6.82;;;;;;;;;;5015186;28;20084;-67
2022/11/11 07:55:56;;;;;;;7.57;6.70;;;;;;;;;;5015040;28;20030;-69
2022/11/11 07:58:22;;;;;;;7.25;6.40;;;;;;;;;;5032739;28;20104;-68
2022/11/11 08:00:47;;;;;;;7.00;6.30;;;;;;;;;;5032815;28;20118;-70
2022/11/11 08:03:13;;;;;;;7.72;6.90;;;;;;;;;;5032862;28;20033;-69
2022/11/11 08:05:39;;;;;;;7.72;6.57;;;;;;;;;;5024662;28;20080;-69
2022/11/11 08:08:08;;;;;;;8.93;6.72;;;;;;;;;;5024571;28;20038;-69
2022/11/11 08:10:35;;;;;;;7.38;6.65;;;;;;;;;;5026794;28;20025;-70
2022/11/11 08:15:45;;;;;;;6.85;6.07;;;;;;;;;;5032756;28;20036;-71
2022/11/11 08:18:11;;;;;;;7.72;6.93;;;;;;;;;;5034539;28;20017;-71
2022/11/11 08:20:37;;;;;;;7.72;7.00;;;;;;;;;;5033321;28;20028;-70
2022/11/11 08:23:09;;;;;;;7.85;6.68;;;;;;;;;;5034495;28;20065;-70
2022/11/11 08:25:35;;;;;;;6.95;6.25;;;;;;;;;;5034302;28;20125;-73
2022/11/11 08:28:03;;;;;;;7.00;6.30;;;;;;;;;;5034539;28;20041;-73
2022/11/11 08:30:32;;;;;;;7.20;6.45;;;;;;;;;;5034664;28;20041;-75
2022/11/11 08:33:04;;;;;;;8.23;6.72;;;;;;;;;;5034547;28;20521;-75
2022/11/11 08:35:30;;;;;;;7.45;6.53;;;;;;;;;;5034411;28;20029;-75
2022/11/11 08:38:00;;;;;;;7.60;6.80;;;;;;;;;;5034330;28;20026;-74
2022/11/11 08:40:26;;;;;;;8.45;6.22;;;;;;;;;;5034198;28;20068;-74
2022/11/11 08:42:56;;;;;;;7.50;6.68;;;;;;;;;;5034164;28;20025;-72
2022/11/11 08:45:22;;;;;;;7.45;6.40;;;;;;;;;;5033147;28;20029;-69
2022/11/11 08:47:49;;;;;;;8.15;6.63;;;;;;;;;;5053993;28;20036;-69
2022/11/11 08:50:14;;;;;;;8.25;7.40;;;;;;;;;;5049544;28;20115;-69
2022/11/11 08:52:47;;;;;;;8.23;6.60;;;;;;;;;;5033568;28;20064;-69
2022/11/11 08:55:13;;;;;;;7.72;6.85;;;;;;;;;;5038404;28;20029;-69
2022/11/11 08:57:38;;;;;;;7.70;6.68;;;;;;;;;;5054054;28;20385;-69
2022/11/11 09:00:05;;;;;;;7.68;6.72;;;;;;;;;;5054056;28;20056;-72
2022/11/11 09:02:31;;;;;;;6.95;6.15;;;;;;;;;;5052417;28;20489;-70
2022/11/11 09:04:57;;;;;;;8.05;6.40;;;;;;;;;;5052869;28;20031;-70
2022/11/11 09:07:23;;;;;;;6.63;6.00;;;;;;;;;;5052826;28;20032;-72
2022/11/11 09:09:48;;;;;;;7.00;6.28;;;;;;;;;;5053795;28;20025;-71
2022/11/11 09:12:14;;;;;;;7.03;6.32;;;;;;;;;;5053473;28;20100;-71
2022/11/11 09:14:39;;;;;;;7.65;6.32;;;;;;;;;;5053488;28;20029;-69
2022/11/11 09:17:06;;;;;;;6.85;6.15;;;;;;;;;;5053255;28;20068;-69
2022/11/11 09:19:31;;;;;;;7.72;6.93;;;;;;;;;;5053314;28;20036;-69
2022/11/11 09:21:57;;;;;;;7.15;6.25;;;;;;;;;;5053239;28;20392;-71
2022/11/11 09:24:22;;;;;;;7.63;6.63;;;;;;;;;;5053127;28;20025;-69
2022/11/11 09:26:49;;;;;;;7.50;6.40;;;;;;;;;;5053310;28;20045;-69
2022/11/11 09:29:14;;;;;;;6.80;6.10;;;;;;;;;;5053517;28;20029;-68
2022/11/11 09:31:40;;;;;;;6.38;5.78;;;;;;;;;;5053015;28;20385;-69
2022/11/11 09:34:05;;;;;;;6.65;6.05;;;;;;;;;;5053276;28;20025;-70
2022/11/11 09:36:32;;;;;;;6.68;6.07;;;;;;;;;;5053027;28;20029;-69
2022/11/11 09:38:58;;;;;;;6.55;5.88;;;;;;;;;;5053466;28;20029;-71
2022/11/11 09:41:56;;;;;;;7.82;6.47;;;;;;;;;;5053039;28;20028;-69
2022/11/11 09:44:42;;;;;;;6.28;5.53;;;;;;;;;;5054682;28;20020;-72
2022/11/11 09:47:51;;;;;;;7.32;6.13;;;;;;;;;;5032810;28;20106;-71
2022/11/11 09:50:26;;;;;;;6.68;6.05;;;;;;;;;;5050106;28;20194;-74
2022/11/11 09:53:21;;;;;;;6.93;6.07;;;;;;;;;;5054819;28;20072;-73
2022/11/11 09:55:55;;;;;;;7.05;5.93;;;;;;;;;;5054229;28;20043;-70
2022/11/11 09:58:52;;;;;;;7.85;6.25;;;;;;;;;;5055278;28;20370;-74
2022/11/11 10:01:35;;;;;;;6.57;5.93;;;;;;;;;;5049878;28;20033;-74
2022/11/11 10:04:33;;;;;;;7.30;6.00;;;;;;;;;;5052858;28;20048;-73
2022/11/11 10:07:21;;;;;;;6.40;5.80;;;;;;;;;;5034823;28;20037;-72
2022/11/11 10:10:12;;;;;;;6.25;5.57;;;;;;;;;;5053045;28;20473;-75
2022/11/11 10:12:55;;;;;;;7.85;6.63;;;;;;;;;;5047453;28;20065;-72
2022/11/11 10:15:22;;;;;;;7.13;6.40;;;;;;;;;;5052726;28;20031;-73
2022/11/11 10:18:01;;;;;;;6.72;5.97;;;;;;;;;;5051194;28;20032;-72
2022/11/11 10:20:30;;;;;;;7.20;6.00;;;;;;;;;;5052433;28;20025;-72
2022/11/11 10:23:12;;;;;;;8.27;6.28;;;;;;;;;;5051781;28;20539;-74
2022/11/11 10:25:53;;;;;;;6.75;5.93;;;;;;;;;;5052275;28;20525;-70
2022/11/11 10:28:21;;;;;;;7.35;6.28;;;;;;;;;;5052014;28;20049;-73
2022/11/11 10:30:49;;;;;;;8.10;6.28;;;;;;;;;;5052211;28;20041;-72
2022/11/11 10:33:28;;;;;;;6.93;6.22;;;;;;;;;;5052152;28;20082;-73
2022/11/11 10:35:56;;;;;;;7.43;6.68;;;;;;;;;;5052178;28;20033;-69
2022/11/11 10:38:29;;;;;;;7.03;6.15;;;;;;;;;;5052344;28;20029;-70
2022/11/11 10:40:58;;;;;;;6.95;6.25;;;;;;;;;;5052170;28;20033;-71
2022/11/11 10:43:26;;;;;;;6.53;5.90;;;;;;;;;;5051981;28;20500;-74
2022/11/11 10:46:22;;;;;;;7.30;6.60;;;;;;;;;;5052016;28;20477;-73
2022/11/11 10:49:16;;;;;;;8.02;6.22;;;;;;;;;;5052067;28;20021;-74
2022/11/11 10:51:50;;;;;;;7.03;6.05;;;;;;;;;;5052315;28;20104;-70
2022/11/11 10:54:23;;;;;;;6.90;5.65;;;;;;;;;;5052493;28;20025;-70
2022/11/11 10:56:57;;;;;;;7.35;6.20;;;;;;;;;;5053824;28;20412;-70
2022/11/11 10:59:48;;;;;;;7.97;6.30;;;;;;;;;;5053445;28;20021;-73
2022/11/11 11:02:20;;;;;;;7.00;6.30;;;;;;;;;;5052707;28;20040;-73
2022/11/11 11:04:57;;;;;;;7.85;6.35;;;;;;;;;;5052895;28;20033;-74
2022/11/11 11:07:33;;;;;;;7.07;6.18;;;;;;;;;;5052523;28;20028;-74
2022/11/11 11:10:21;;;;;;;7.70;6.22;;;;;;;;;;5052436;28;20025;-73
2022/11/11 11:13:05;;;;;;;7.78;6.30;;;;;;;;;;5052020;28;20385;-71
2022/11/11 11:15:35;;;;;;;7.22;6.32;;;;;;;;;;5052029;28;20044;-72
2022/11/11 11:18:11;;;;;;;6.68;6.03;;;;;;;;;;5051760;28;20024;-71
2022/11/11 11:20:36;;;;;;;6.82;6.13;;;;;;;;;;5046343;28;20087;-70
2022/11/11 11:23:02;;;;;;;7.18;6.28;;;;;;;;;;5037617;28;20474;-70
2022/11/11 11:25:32;;;;;;;7.32;6.07;;;;;;;;;;5031883;28;20025;-71
2022/11/11 11:28:12;;;;;;;7.47;6.43;;;;;;;;;;5031892;28;20046;-70
2022/11/11 11:30:38;;;;;;;6.53;5.70;;;;;;;;;;5031951;28;20037;-70
2022/11/11 11:33:05;;;;;;;7.10;6.15;;;;;;;;;;5031530;28;20216;-70
2022/11/11 11:35:35;;;;;;;7.40;6.13;;;;;;;;;;5033456;28;20017;-71
2022/11/11 11:38:01;;;;;;;8.07;6.47;;;;;;;;;;5035357;28;20036;-70
2022/11/11 11:40:44;;;;;;;6.78;6.07;;;;;;;;;;5035430;28;20025;-70
2022/11/11 11:43:35;;;;;;;7.25;6.07;;;;;;;;;;5035640;28;20025;-71
2022/11/11 11:46:14;;;;;;;7.05;6.07;;;;;;;;;;5034050;28;20068;-71
2022/11/11 11:49:07;;;;;;;6.65;5.95;;;;;;;;;;5032502;28;20120;-71
2022/11/11 11:51:36;;;;;;;6.85;6.10;;;;;;;;;;5032510;28;20069;-71
2022/11/11 11:54:10;;;;;;;6.93;6.13;;;;;;;;;;5033789;28;20033;-69
2022/11/11 11:56:42;;;;;;;6.70;6.00;;;;;;;;;;5033219;28;20037;-70
2022/11/11 11:59:21;;;;;;;6.65;6.03;;;;;;;;;;5033528;28;20524;-71
2022/11/11 12:01:50;;;;;;;7.18;5.90;;;;;;;;;;5033246;28;20033;-70
2022/11/11 12:04:39;;;;;;;6.75;6.05;;;;;;;;;;5032128;28;20034;-69
2022/11/11 12:07:16;;;;;;;7.53;6.25;;;;;;;;;;5032882;28;20061;-68
2022/11/11 12:10:15;;;;;;;6.80;6.10;;;;;;;;;;5031596;28;20030;-70
2022/11/11 12:13:00;;;;;;;6.88;6.20;;;;;;;;;;5031795;28;20466;-70
2022/11/11 12:15:40;;;;;;;6.72;6.00;;;;;;;;;;5031956;28;20044;-74
2022/11/11 12:18:30;;;;;;;7.75;6.32;;;;;;;;;;5031492;28;20045;-69
2022/11/11 12:21:07;;;;;;;6.25;5.65;;;;;;;;;;5013355;28;20066;-72
2022/11/11 12:23:42;;;;;;;8.07;6.78;;;;;;;;;;5013184;28;20609;-72
2022/11/11 12:26:27;;;;;;;6.97;5.70;;;;;;;;;;5013068;28;20040;-71
2022/11/11 12:29:14;;;;;;;6.97;6.15;;;;;;;;;;5013219;28;20037;-69
2022/11/11 12:31:40;;;;;;;6.60;5.90;;;;;;;;;;5026406;28;20041;-71
2022/11/11 12:34:36;;;;;;;14.60;9.18;;;;;;;;;;5032974;28;20080;-66
2022/11/11 12:37:21;;;;;;;16.10;11.23;;;;;;;;;;5032759;28;20029;-69
2022/11/11 12:40:26;;;;;;;14.68;10.73;;;;;;;;;;5032982;28;20537;-70
2022/11/11 12:43:06;;;;;;;13.10;8.48;;;;;;;;;;5027541;28;20130;-69
2022/11/11 12:45:53;;;;;;;10.63;8.63;;;;;;;;;;5032464;28;20079;-72
2022/11/11 12:48:37;;;;;;;10.68;8.13;;;;;;;;;;5018836;28;20079;-72
2022/11/11 12:51:27;;;;;;;10.65;7.15;;;;;;;;;;5049377;28;20052;-68
2022/11/11 12:54:01;;;;;;;7.90;6.47;;;;;;;;;;5031567;28;20029;-73
2022/11/11 12:56:38;;;;;;;8.35;6.22;;;;;;;;;;5032680;28;20041;-73
2022/11/11 12:59:22;;;;;;;7.13;6.43;;;;;;;;;;5063266;28;20039;-71
2022/11/11 13:02:01;;;;;;;8.82;7.07;;;;;;;;;;5031628;28;20124;-71
2022/11/11 13:04:42;;;;;;;7.17;6.47;;;;;;;;;;5050876;28;20032;-72
2022/11/11 13:07:10;;;;;;;10.77;6.50;;;;;;;;;;5052253;28;20111;-71
2022/11/11 13:09:50;;;;;;;8.63;6.55;;;;;;;;;;5051974;28;20084;-70
2022/11/11 13:12:31;;;;;;;6.93;6.15;;;;;;;;;;5052060;28;20032;-71
2022/11/11 13:15:14;;;;;;;9.30;6.30;;;;;;;;;;5012416;28;20034;-71
2022/11/11 13:17:40;;;;;;;9.10;6.57;;;;;;;;;;5020253;28;20029;-72
2022/11/11 13:20:34;;;;;;;7.15;6.20;;;;;;;;;;5045618;28;20036;-72
2022/11/11 13:22:59;;;;;;;9.15;6.72;;;;;;;;;;5012579;28;20378;-72
2022/11/11 13:25:30;;;;;;;9.23;6.40;;;;;;;;;;5012014;28;20029;-72
2022/11/11 13:27:58;;;;;;;9.05;6.65;;;;;;;;;;5012109;28;20502;-73
2022/11/11 13:31:02;;;;;;;8.18;6.30;;;;;;;;;;5011062;28;20041;-73
2022/11/11 13:33:38;;;;;;;9.07;6.70;;;;;;;;;;5032388;28;20029;-72
2022/11/11 13:36:08;;;;;;;7.32;6.15;;;;;;;;;;5031582;28;20029;-73
2022/11/11 13:38:36;;;;;;;;;;;;;;;;;;5032143;28;20069;-72
2022/11/11 13:41:12;;;;;;;7.45;6.53;;;;;;;;;;5030784;28;20269;-71
2022/11/11 13:43:47;;;;;;;8.63;6.70;;;;;;;;;;5031934;28;20022;-73
2022/11/11 13:46:50;;;;;;;6.70;6.05;;;;;;;;;;5031634;28;20129;-72
2022/11/11 13:49:24;;;;;;;8.40;5.88;;;;;;;;;;5023771;28;20591;-71
2022/11/11 13:52:01;;;;;;;7.97;6.38;;;;;;;;;;5035595;28;20415;-72
2022/11/11 13:54:41;;;;;;;7.45;5.88;;;;;;;;;;5046634;28;20021;-70
2022/11/11 13:57:12;;;;;;;8.55;6.40;;;;;;;;;;5033364;28;20037;-71
2022/11/11 13:59:42;;;;;;;14.00;6.05;;;;;;;;;;5031109;28;20023;-73
2022/11/11 14:02:18;;;;;;;6.88;6.13;;;;;;;;;;5029777;28;20025;-73
2022/11/11 14:05:01;;;;;;;7.03;6.10;;;;;;;;;;5029906;28;20026;-75
2022/11/11 14:07:48;;;;;;;7.43;6.10;;;;;;;;;;5031046;28;20033;-72
2022/11/11 14:10:16;;;;;;;6.63;5.80;;;;;;;;;;5031061;28;20557;-72
2022/11/11 14:12:46;;;;;;;8.73;6.40;;;;;;;;;;5039675;28;20029;-74
2022/11/11 14:15:36;;;;;;;6.50;5.80;;;;;;;;;;5051007;28;20029;-74
2022/11/11 14:18:07;;;;;;;7.30;6.35;;;;;;;;;;5042757;28;20497;-73
2022/11/11 14:20:41;;;;;;;6.80;5.70;;;;;;;;;;5031272;28;20029;-72
2022/11/11 14:23:31;;;;;;;6.50;5.68;;;;;;;;;;5029256;28;20029;-75
2022/11/11 14:26:21;;;;;;;7.00;6.28;;;;;;;;;;5027261;28;20504;-74
2022/11/11 14:28:58;;;;;;;6.80;6.10;;;;;;;;;;5030529;28;20050;-73
2022/11/11 14:31:48;;;;;;;8.50;6.15;;;;;;;;;;5033437;28;20104;-74
2022/11/11 14:34:31;;;;;;;6.70;6.00;;;;;;;;;;5017192;28;20025;-74
2022/11/11 14:37:38;;;;;;;7.18;6.28;;;;;;;;;;5023433;28;20034;-75
2022/11/11 14:40:12;;;;;;;7.68;6.70;;;;;;;;;;5011363;28;20045;-71
2022/11/11 14:42:37;;;;;;;8.00;6.55;;;;;;;;;;5011631;28;20033;-74
2022/11/11 14:45:26;;;;;;;6.47;5.53;;;;;;;;;;5026137;28;20025;-73
2022/11/11 14:47:51;;;;;;;9.63;6.25;;;;;;;;;;5029996;28;20140;-72
2022/11/11 14:50:32;;;;;;;7.50;6.13;;;;;;;;;;5050619;28;20153;-73
2022/11/11 14:53:18;;;;;;;8.45;5.88;;;;;;;;;;5051248;28;20029;-74
2022/11/11 14:55:51;;;;;;;7.53;5.82;;;;;;;;;;5050768;28;20090;-73
2022/11/11 14:58:19;;;;;;;6.53;5.88;;;;;;;;;;5050622;28;20036;-74
2022/11/11 15:01:08;;;;;;;8.18;6.35;;;;;;;;;;5050946;28;20033;-73
2022/11/11 15:03:41;;;;;;;6.95;6.13;;;;;;;;;;5050621;28;20542;-73
2022/11/11 15:06:15;;;;;;;7.10;5.80;;;;;;;;;;5050798;28;20029;-73
2022/11/11 15:08:52;;;;;;;5.80;5.20;;;;;;;;;;5051031;28;20427;-73
2022/11/11 15:11:41;;;;;;;6.22;5.63;;;;;;;;;;5054767;28;20032;-73
2022/11/11 15:14:18;;;;;;;6.93;6.05;;;;;;;;;;5045668;28;20564;-73
2022/11/11 15:16:57;;;;;;;6.95;6.13;;;;;;;;;;5040734;28;20087;-74
2022/11/11 15:19:28;;;;;;;6.35;5.75;;;;;;;;;;5054300;28;20475;-73
2022/11/11 15:22:08;;;;;;;6.95;5.93;;;;;;;;;;5030532;28;20036;-73
2022/11/11 15:24:49;;;;;;;6.53;5.85;;;;;;;;;;5035406;28;20033;-70
2022/11/11 15:27:30;;;;;;;8.05;6.00;;;;;;;;;;5035267;28;20049;-72
2022/11/11 15:30:10;;;;;;;6.65;5.53;;;;;;;;;;5035058;28;20128;-72
2022/11/11 15:32:49;;;;;;;7.55;6.72;;;;;;;;;;5035247;28;20026;-74
2022/11/11 15:35:49;;;;;;;6.90;5.95;;;;;;;;;;5035112;28;20026;-72
2022/11/11 15:38:17;;;;;;;9.00;6.30;;;;;;;;;;5032417;28;20406;-67
2022/11/11 15:40:48;;;;;;;6.47;5.88;;;;;;;;;;5039016;28;20029;-68
2022/11/11 15:43:25;;;;;;;7.53;6.53;;;;;;;;;;5053718;28;20032;-67
2022/11/11 15:46:00;;;;;;;7.65;6.30;;;;;;;;;;5053683;28;20037;-66
2022/11/11 15:48:31;;;;;;;9.93;6.53;;;;;;;;;;5053813;28;20053;-66
2022/11/11 15:50:57;;;;;;;6.68;5.57;;;;;;;;;;5053289;28;20041;-66
2022/11/11 15:53:25;;;;;;;8.05;6.20;;;;;;;;;;5052974;28;20116;-67
2022/11/11 15:56:03;;;;;;;7.97;6.28;;;;;;;;;;5052750;28;20520;-66
2022/11/11 15:58:31;;;;;;;6.50;5.75;;;;;;;;;;5053833;28;20120;-67
2022/11/11 16:01:03;;;;;;;6.78;6.00;;;;;;;;;;5053396;28;20106;-66
2022/11/11 16:03:43;;;;;;;7.22;6.53;;;;;;;;;;5052356;28;20029;-66
2022/11/11 16:06:12;;;;;;;7.22;6.30;;;;;;;;;;5051933;28;20033;-67
2022/11/11 16:08:47;;;;;;;7.75;6.55;;;;;;;;;;5053176;28;20029;-66
2022/11/11 16:11:15;;;;;;;7.63;6.30;;;;;;;;;;5053128;28;20052;-66
2022/11/11 16:13:50;;;;;;;7.10;6.35;;;;;;;;;;5053447;28;20028;-66
2022/11/11 16:16:22;;;;;;;7.68;6.20;;;;;;;;;;5053008;28;20082;-66
2022/11/11 16:19:11;;;;;;;8.93;6.15;;;;;;;;;;5052987;28;20568;-66
2022/11/11 16:22:14;;;;;;;6.38;5.78;;;;;;;;;;5052588;28;20029;-65
2022/11/11 16:24:43;;;;;;;7.22;6.03;;;;;;;;;;5010506;28;20049;-66
2022/11/11 16:27:16;;;;;;;6.60;5.93;;;;;;;;;;5044904;28;20120;-66
2022/11/11 16:29:42;;;;;;;7.25;6.47;;;;;;;;;;5052811;28;20029;-66
2022/11/11 16:32:24;;;;;;;7.40;6.43;;;;;;;;;;5052753;28;20108;-68